sensor_id;sensor_type;location;lat;lon;timestamp;pressure;altitude;pressure_sealevel;temperature;humidity
11985;BME280;6052;53.246;10.368;2023-09-19T00:00:21;99920.81;;;20.18;93.68
11985;BME280;6052;53.246;10.368;2023-09-19T00:02:52;99920.50;;;20.28;93.49
11985;BME280;6052;53.246;10.368;2023-09-19T00:05:24;99926.78;;;20.20;93.80
11985;BME280;6052;53.246;10.368;2023-09-19T00:07:56;99921.31;;;20.29;93.04
11985;BME280;6052;53.246;10.368;2023-09-19T00:10:28;99919.50;;;19.99;94.28
11985;BME280;6052;53.246;10.368;2023-09-19T00:12:58;99928.66;;;20.03;94.65
11985;BME280;6052;53.246;10.368;2023-09-19T00:15:36;99923.56;;;20.18;93.60
11985;BME280;6052;53.246;10.368;2023-09-19T00:18:07;99926.28;;;20.18;93.82
11985;BME280;6052;53.246;10.368;2023-09-19T00:20:38;99932.63;;;19.97;95.04
11985;BME280;6052;53.246;10.368;2023-09-19T00:23:08;99935.84;;;19.99;95.16
11985;BME280;6052;53.246;10.368;2023-09-19T00:25:40;99928.84;;;20.23;92.78
11985;BME280;6052;53.246;10.368;2023-09-19T00:28:10;99926.28;;;20.18;93.73
11985;BME280;6052;53.246;10.368;2023-09-19T00:30:42;99929.34;;;20.17;92.99
11985;BME280;6052;53.246;10.368;2023-09-19T00:33:12;99922.06;;;20.04;93.56
11985;BME280;6052;53.246;10.368;2023-09-19T00:35:47;99935.59;;;20.17;93.66
11985;BME280;6052;53.246;10.368;2023-09-19T00:38:16;99939.03;;;20.01;94.32
11985;BME280;6052;53.246;10.368;2023-09-19T00:40:50;99945.28;;;19.93;95.63
11985;BME280;6052;53.246;10.368;2023-09-19T00:43:22;99947.31;;;19.70;95.65
11985;BME280;6052;53.246;10.368;2023-09-19T00:45:53;99955.84;;;19.86;95.08
11985;BME280;6052;53.246;10.368;2023-09-19T00:48:23;99946.88;;;19.94;95.25
11985;BME280;6052;53.246;10.368;2023-09-19T00:50:57;99947.19;;;19.84;95.64
11985;BME280;6052;53.246;10.368;2023-09-19T00:53:30;99953.78;;;20.00;94.82
11985;BME280;6052;53.246;10.368;2023-09-19T00:56:03;99949.31;;;20.04;94.53
11985;BME280;6052;53.246;10.368;2023-09-19T00:58:36;99944.47;;;19.84;95.14
11985;BME280;6052;53.246;10.368;2023-09-19T01:01:07;99942.00;;;20.13;93.94
11985;BME280;6052;53.246;10.368;2023-09-19T01:03:38;99948.19;;;20.05;94.28
11985;BME280;6052;53.246;10.368;2023-09-19T01:06:08;99951.03;;;19.83;95.50
11985;BME280;6052;53.246;10.368;2023-09-19T01:08:38;99949.19;;;20.09;94.80
11985;BME280;6052;53.246;10.368;2023-09-19T01:11:14;99952.66;;;20.01;94.21
11985;BME280;6052;53.246;10.368;2023-09-19T01:13:54;99951.81;;;19.83;94.85
11985;BME280;6052;53.246;10.368;2023-09-19T01:16:32;99957.63;;;19.90;96.01
11985;BME280;6052;53.246;10.368;2023-09-19T01:19:25;99966.59;;;19.91;94.92
11985;BME280;6052;53.246;10.368;2023-09-19T01:22:07;99961.09;;;19.74;96.18
11985;BME280;6052;53.246;10.368;2023-09-19T01:25:20;99968.72;;;19.63;96.02
11985;BME280;6052;53.246;10.368;2023-09-19T01:28:25;99968.66;;;19.85;95.35
11985;BME280;6052;53.246;10.368;2023-09-19T01:31:10;99965.28;;;19.80;95.71
11985;BME280;6052;53.246;10.368;2023-09-19T01:33:57;99966.41;;;19.79;94.76
11985;BME280;6052;53.246;10.368;2023-09-19T01:36:32;99965.59;;;19.87;94.50
11985;BME280;6052;53.246;10.368;2023-09-19T01:39:07;99975.69;;;19.78;94.53
11985;BME280;6052;53.246;10.368;2023-09-19T01:41:47;99967.69;;;19.81;93.71
11985;BME280;6052;53.246;10.368;2023-09-19T01:44:25;99974.25;;;19.80;94.73
11985;BME280;6052;53.246;10.368;2023-09-19T01:47:04;99976.28;;;19.66;95.48
11985;BME280;6052;53.246;10.368;2023-09-19T01:49:42;99968.16;;;19.83;93.83
11985;BME280;6052;53.246;10.368;2023-09-19T01:52:14;99967.22;;;19.88;94.01
11985;BME280;6052;53.246;10.368;2023-09-19T01:54:49;99975.75;;;20.03;93.01
11985;BME280;6052;53.246;10.368;2023-09-19T01:57:25;99978.13;;;19.88;93.35
11985;BME280;6052;53.246;10.368;2023-09-19T02:00:01;99981.09;;;19.69;93.97
11985;BME280;6052;53.246;10.368;2023-09-19T02:02:37;99981.81;;;19.92;93.58
11985;BME280;6052;53.246;10.368;2023-09-19T02:05:07;99980.50;;;19.89;92.84
11985;BME280;6052;53.246;10.368;2023-09-19T02:07:38;99976.34;;;19.83;92.57
11985;BME280;6052;53.246;10.368;2023-09-19T02:10:08;99977.63;;;19.86;92.72
11985;BME280;6052;53.246;10.368;2023-09-19T02:12:38;99983.81;;;19.69;93.39
11985;BME280;6052;53.246;10.368;2023-09-19T02:15:08;99977.91;;;19.76;92.67
11985;BME280;6052;53.246;10.368;2023-09-19T02:17:40;99974.91;;;19.47;94.61
11985;BME280;6052;53.246;10.368;2023-09-19T02:20:11;99989.53;;;19.59;93.74
11985;BME280;6052;53.246;10.368;2023-09-19T02:22:42;99996.34;;;19.70;93.77
11985;BME280;6052;53.246;10.368;2023-09-19T02:25:11;99996.97;;;19.45;94.09
11985;BME280;6052;53.246;10.368;2023-09-19T02:27:41;99989.63;;;19.46;94.27
11985;BME280;6052;53.246;10.368;2023-09-19T02:30:12;100012.16;;;19.38;94.29
11985;BME280;6052;53.246;10.368;2023-09-19T02:32:45;100009.16;;;19.48;94.70
11985;BME280;6052;53.246;10.368;2023-09-19T02:35:12;100011.19;;;19.64;93.49
11985;BME280;6052;53.246;10.368;2023-09-19T02:37:42;99996.81;;;19.42;94.14
11985;BME280;6052;53.246;10.368;2023-09-19T02:40:12;100016.25;;;19.49;93.64
11985;BME280;6052;53.246;10.368;2023-09-19T02:42:49;100015.59;;;19.52;92.86
11985;BME280;6052;53.246;10.368;2023-09-19T02:45:21;100011.31;;;19.59;93.51
11985;BME280;6052;53.246;10.368;2023-09-19T02:47:54;100020.00;;;19.61;93.34
11985;BME280;6052;53.246;10.368;2023-09-19T02:50:24;100013.81;;;19.47;92.62
11985;BME280;6052;53.246;10.368;2023-09-19T02:52:54;100018.69;;;19.59;92.93
11985;BME280;6052;53.246;10.368;2023-09-19T02:55:23;100023.78;;;19.52;92.99
11985;BME280;6052;53.246;10.368;2023-09-19T02:57:53;100018.16;;;19.48;93.24
11985;BME280;6052;53.246;10.368;2023-09-19T03:00:24;100012.56;;;19.53;93.05
11985;BME280;6052;53.246;10.368;2023-09-19T03:02:56;100007.44;;;19.52;92.65
11985;BME280;6052;53.246;10.368;2023-09-19T03:05:26;100020.19;;;19.43;92.87
11985;BME280;6052;53.246;10.368;2023-09-19T03:07:57;100012.53;;;19.45;92.01
11985;BME280;6052;53.246;10.368;2023-09-19T03:10:28;99996.50;;;19.43;92.02
11985;BME280;6052;53.246;10.368;2023-09-19T03:12:58;100012.31;;;19.63;90.84
11985;BME280;6052;53.246;10.368;2023-09-19T03:15:28;100006.31;;;19.53;90.71
11985;BME280;6052;53.246;10.368;2023-09-19T03:18:00;100012.75;;;19.57;90.59
11985;BME280;6052;53.246;10.368;2023-09-19T03:20:30;100022.63;;;19.22;91.41
11985;BME280;6052;53.246;10.368;2023-09-19T03:22:59;100030.69;;;19.27;90.90
11985;BME280;6052;53.246;10.368;2023-09-19T03:25:30;100026.03;;;19.28;90.83
11985;BME280;6052;53.246;10.368;2023-09-19T03:28:01;100029.91;;;19.35;90.13
11985;BME280;6052;53.246;10.368;2023-09-19T03:30:32;100033.94;;;19.38;88.60
11985;BME280;6052;53.246;10.368;2023-09-19T03:33:05;100036.44;;;19.26;87.06
11985;BME280;6052;53.246;10.368;2023-09-19T03:35:35;100041.06;;;19.25;86.02
11985;BME280;6052;53.246;10.368;2023-09-19T03:38:04;100042.22;;;19.33;84.59
11985;BME280;6052;53.246;10.368;2023-09-19T03:40:34;100041.31;;;19.37;84.09
11985;BME280;6052;53.246;10.368;2023-09-19T03:43:04;100043.41;;;19.40;83.74
11985;BME280;6052;53.246;10.368;2023-09-19T03:45:34;100045.72;;;19.11;83.14
11985;BME280;6052;53.246;10.368;2023-09-19T03:48:10;100042.16;;;19.24;83.10
11985;BME280;6052;53.246;10.368;2023-09-19T03:50:40;100044.00;;;18.93;82.70
11985;BME280;6052;53.246;10.368;2023-09-19T03:53:10;100039.94;;;19.26;82.07
11985;BME280;6052;53.246;10.368;2023-09-19T03:55:40;100040.75;;;19.27;81.34
11985;BME280;6052;53.246;10.368;2023-09-19T03:58:10;100036.34;;;19.17;81.78
11985;BME280;6052;53.246;10.368;2023-09-19T04:00:39;100051.03;;;19.16;82.46
11985;BME280;6052;53.246;10.368;2023-09-19T04:03:11;100058.06;;;19.31;81.59
11985;BME280;6052;53.246;10.368;2023-09-19T04:05:46;100048.31;;;19.16;82.40
11985;BME280;6052;53.246;10.368;2023-09-19T04:08:15;100063.13;;;19.24;82.65
11985;BME280;6052;53.246;10.368;2023-09-19T04:10:45;100060.84;;;19.39;82.44
11985;BME280;6052;53.246;10.368;2023-09-19T04:13:14;100063.56;;;19.17;83.83
11985;BME280;6052;53.246;10.368;2023-09-19T04:15:44;100070.28;;;19.20;83.71
11985;BME280;6052;53.246;10.368;2023-09-19T04:18:16;100062.53;;;19.27;83.89
11985;BME280;6052;53.246;10.368;2023-09-19T04:20:48;100085.88;;;19.41;84.20
11985;BME280;6052;53.246;10.368;2023-09-19T04:23:18;100076.94;;;19.14;83.24
11985;BME280;6052;53.246;10.368;2023-09-19T04:25:47;100077.59;;;19.33;83.24
11985;BME280;6052;53.246;10.368;2023-09-19T04:28:17;100084.69;;;19.34;82.87
11985;BME280;6052;53.246;10.368;2023-09-19T04:30:47;100086.41;;;19.30;82.97
11985;BME280;6052;53.246;10.368;2023-09-19T04:33:18;100097.75;;;19.10;83.20
11985;BME280;6052;53.246;10.368;2023-09-19T04:35:49;100096.31;;;19.12;83.83
11985;BME280;6052;53.246;10.368;2023-09-19T04:38:18;100103.16;;;19.23;82.97
11985;BME280;6052;53.246;10.368;2023-09-19T04:40:48;100105.59;;;19.25;83.13
11985;BME280;6052;53.246;10.368;2023-09-19T04:43:18;100110.06;;;18.94;82.89
11985;BME280;6052;53.246;10.368;2023-09-19T04:45:48;100105.78;;;19.15;82.84
11985;BME280;6052;53.246;10.368;2023-09-19T04:48:20;100119.34;;;18.93;82.86
11985;BME280;6052;53.246;10.368;2023-09-19T04:50:50;100123.09;;;18.83;82.94
11985;BME280;6052;53.246;10.368;2023-09-19T04:53:20;100128.16;;;18.63;83.63
11985;BME280;6052;53.246;10.368;2023-09-19T04:55:50;100126.44;;;18.67;83.93
11985;BME280;6052;53.246;10.368;2023-09-19T04:58:22;100136.69;;;18.70;83.58
11985;BME280;6052;53.246;10.368;2023-09-19T05:00:52;100137.59;;;18.79;83.59
11985;BME280;6052;53.246;10.368;2023-09-19T05:03:23;100126.72;;;18.79;83.40
11985;BME280;6052;53.246;10.368;2023-09-19T05:05:53;100131.44;;;18.87;83.62
11985;BME280;6052;53.246;10.368;2023-09-19T05:08:22;100138.22;;;18.76;83.92
11985;BME280;6052;53.246;10.368;2023-09-19T05:10:52;100130.06;;;18.76;83.76
11985;BME280;6052;53.246;10.368;2023-09-19T05:13:22;100129.75;;;18.77;83.85
11985;BME280;6052;53.246;10.368;2023-09-19T05:15:54;100136.41;;;18.71;84.09
11985;BME280;6052;53.246;10.368;2023-09-19T05:18:26;100140.56;;;18.55;84.49
11985;BME280;6052;53.246;10.368;2023-09-19T05:20:56;100136.22;;;18.68;84.09
11985;BME280;6052;53.246;10.368;2023-09-19T05:23:25;100134.59;;;18.67;83.81
11985;BME280;6052;53.246;10.368;2023-09-19T05:25:55;100145.88;;;18.74;83.66
11985;BME280;6052;53.246;10.368;2023-09-19T05:28:25;100152.31;;;18.78;83.34
11985;BME280;6052;53.246;10.368;2023-09-19T05:30:54;100150.91;;;18.67;83.97
11985;BME280;6052;53.246;10.368;2023-09-19T05:33:26;100156.03;;;18.82;83.73
11985;BME280;6052;53.246;10.368;2023-09-19T05:35:58;100155.13;;;18.73;83.73
11985;BME280;6052;53.246;10.368;2023-09-19T05:38:28;100162.38;;;18.77;83.95
11985;BME280;6052;53.246;10.368;2023-09-19T05:40:59;100157.25;;;18.62;84.08
11985;BME280;6052;53.246;10.368;2023-09-19T05:43:28;100172.25;;;18.60;84.56
11985;BME280;6052;53.246;10.368;2023-09-19T05:45:59;100173.88;;;18.61;84.60
11985;BME280;6052;53.246;10.368;2023-09-19T05:48:32;100174.97;;;18.60;84.89
11985;BME280;6052;53.246;10.368;2023-09-19T05:51:01;100173.47;;;18.54;85.67
11985;BME280;6052;53.246;10.368;2023-09-19T05:53:31;100163.81;;;18.61;85.79
11985;BME280;6052;53.246;10.368;2023-09-19T05:56:00;100164.81;;;18.52;86.19
11985;BME280;6052;53.246;10.368;2023-09-19T05:58:30;100165.31;;;18.40;86.75
11985;BME280;6052;53.246;10.368;2023-09-19T06:01:00;100178.78;;;18.32;87.47
11985;BME280;6052;53.246;10.368;2023-09-19T06:03:33;100180.03;;;18.39;88.03
11985;BME280;6052;53.246;10.368;2023-09-19T06:06:02;100171.66;;;18.49;87.44
11985;BME280;6052;53.246;10.368;2023-09-19T06:08:32;100175.03;;;18.28;88.52
11985;BME280;6052;53.246;10.368;2023-09-19T06:11:03;100184.44;;;18.35;88.26
11985;BME280;6052;53.246;10.368;2023-09-19T06:13:33;100183.84;;;18.06;89.37
11985;BME280;6052;53.246;10.368;2023-09-19T06:16:04;100179.50;;;18.51;88.61
11985;BME280;6052;53.246;10.368;2023-09-19T06:18:38;100180.38;;;18.19;88.40
11985;BME280;6052;53.246;10.368;2023-09-19T06:21:08;100184.59;;;18.25;88.61
11985;BME280;6052;53.246;10.368;2023-09-19T06:23:38;100189.00;;;18.08;89.29
11985;BME280;6052;53.246;10.368;2023-09-19T06:26:08;100192.94;;;18.15;89.31
11985;BME280;6052;53.246;10.368;2023-09-19T06:28:40;100192.13;;;18.28;89.08
11985;BME280;6052;53.246;10.368;2023-09-19T06:31:10;100190.50;;;18.14;89.61
11985;BME280;6052;53.246;10.368;2023-09-19T06:33:42;100194.81;;;18.15;89.50
11985;BME280;6052;53.246;10.368;2023-09-19T06:36:12;100190.22;;;18.15;89.67
11985;BME280;6052;53.246;10.368;2023-09-19T06:38:42;100177.66;;;18.19;88.95
11985;BME280;6052;53.246;10.368;2023-09-19T06:41:12;100192.44;;;18.27;88.57
11985;BME280;6052;53.246;10.368;2023-09-19T06:43:44;100199.34;;;18.38;88.62
11985;BME280;6052;53.246;10.368;2023-09-19T06:46:13;100213.81;;;18.33;88.41
11985;BME280;6052;53.246;10.368;2023-09-19T06:48:45;100208.84;;;18.22;88.72
11985;BME280;6052;53.246;10.368;2023-09-19T06:51:16;100201.78;;;18.21;89.21
11985;BME280;6052;53.246;10.368;2023-09-19T06:53:45;100215.59;;;18.24;88.69
11985;BME280;6052;53.246;10.368;2023-09-19T06:56:15;100208.22;;;18.25;88.81
11985;BME280;6052;53.246;10.368;2023-09-19T06:58:44;100209.94;;;18.53;88.15
11985;BME280;6052;53.246;10.368;2023-09-19T07:01:14;100200.47;;;18.18;87.92
11985;BME280;6052;53.246;10.368;2023-09-19T07:03:47;100202.94;;;18.33;88.10
11985;BME280;6052;53.246;10.368;2023-09-19T07:06:16;100199.75;;;18.45;87.47
11985;BME280;6052;53.246;10.368;2023-09-19T07:08:46;100212.53;;;18.58;87.07
11985;BME280;6052;53.246;10.368;2023-09-19T07:11:17;100213.63;;;18.43;86.51
11985;BME280;6052;53.246;10.368;2023-09-19T07:13:47;100204.69;;;18.43;87.05
11985;BME280;6052;53.246;10.368;2023-09-19T07:16:17;100207.50;;;18.51;86.69
11985;BME280;6052;53.246;10.368;2023-09-19T07:18:57;100207.66;;;18.28;85.50
11985;BME280;6052;53.246;10.368;2023-09-19T07:21:27;100224.00;;;18.41;85.37
11985;BME280;6052;53.246;10.368;2023-09-19T07:23:57;100211.72;;;18.44;86.27
11985;BME280;6052;53.246;10.368;2023-09-19T07:26:27;100224.41;;;18.48;85.62
11985;BME280;6052;53.246;10.368;2023-09-19T07:28:57;100223.41;;;18.44;85.35
11985;BME280;6052;53.246;10.368;2023-09-19T07:31:29;100232.53;;;18.35;85.53
11985;BME280;6052;53.246;10.368;2023-09-19T07:34:01;100236.91;;;18.63;85.59
11985;BME280;6052;53.246;10.368;2023-09-19T07:36:33;100240.66;;;18.67;84.66
11985;BME280;6052;53.246;10.368;2023-09-19T07:39:04;100244.50;;;18.66;84.28
11985;BME280;6052;53.246;10.368;2023-09-19T07:41:48;100244.13;;;18.40;84.98
11985;BME280;6052;53.246;10.368;2023-09-19T07:44:17;100249.88;;;18.52;84.57
11985;BME280;6052;53.246;10.368;2023-09-19T07:46:47;100249.19;;;18.47;83.76
11985;BME280;6052;53.246;10.368;2023-09-19T07:49:20;100262.16;;;18.50;83.77
11985;BME280;6052;53.246;10.368;2023-09-19T07:51:49;100248.19;;;18.70;84.01
11985;BME280;6052;53.246;10.368;2023-09-19T07:54:21;100262.31;;;18.72;83.09
11985;BME280;6052;53.246;10.368;2023-09-19T07:56:50;100263.91;;;18.86;83.21
11985;BME280;6052;53.246;10.368;2023-09-19T07:59:22;100271.78;;;18.61;83.35
11985;BME280;6052;53.246;10.368;2023-09-19T08:01:51;100281.75;;;18.65;82.44
11985;BME280;6052;53.246;10.368;2023-09-19T08:04:23;100273.19;;;18.85;83.42
11985;BME280;6052;53.246;10.368;2023-09-19T08:06:53;100276.63;;;18.91;82.87
11985;BME280;6052;53.246;10.368;2023-09-19T08:09:25;100273.59;;;18.65;81.92
11985;BME280;6052;53.246;10.368;2023-09-19T08:11:57;100274.31;;;18.71;81.62
11985;BME280;6052;53.246;10.368;2023-09-19T08:14:29;100265.13;;;18.67;81.62
11985;BME280;6052;53.246;10.368;2023-09-19T08:16:58;100263.31;;;18.89;80.75
11985;BME280;6052;53.246;10.368;2023-09-19T08:19:30;100262.50;;;18.89;80.25
11985;BME280;6052;53.246;10.368;2023-09-19T08:22:00;100255.66;;;18.78;79.76
11985;BME280;6052;53.246;10.368;2023-09-19T08:24:30;100263.00;;;18.77;79.54
11985;BME280;6052;53.246;10.368;2023-09-19T08:27:01;100272.41;;;18.98;79.59
11985;BME280;6052;53.246;10.368;2023-09-19T08:29:35;100275.09;;;18.85;78.65
11985;BME280;6052;53.246;10.368;2023-09-19T08:32:05;100269.75;;;18.80;78.81
11985;BME280;6052;53.246;10.368;2023-09-19T08:34:37;100280.56;;;18.98;78.41
11985;BME280;6052;53.246;10.368;2023-09-19T08:37:06;100275.22;;;18.93;78.24
11985;BME280;6052;53.246;10.368;2023-09-19T08:39:36;100275.81;;;19.04;78.26
11985;BME280;6052;53.246;10.368;2023-09-19T08:42:06;100284.59;;;19.01;78.06
11985;BME280;6052;53.246;10.368;2023-09-19T08:44:38;100284.00;;;19.31;77.92
11985;BME280;6052;53.246;10.368;2023-09-19T08:47:10;100286.00;;;19.12;77.92
11985;BME280;6052;53.246;10.368;2023-09-19T08:49:52;100296.19;;;19.20;77.22
11985;BME280;6052;53.246;10.368;2023-09-19T08:52:28;100282.69;;;19.15;77.04
11985;BME280;6052;53.246;10.368;2023-09-19T08:55:03;100283.28;;;18.98;75.77
11985;BME280;6052;53.246;10.368;2023-09-19T08:57:36;100279.78;;;19.25;76.59
11985;BME280;6052;53.246;10.368;2023-09-19T09:00:10;100278.84;;;19.16;76.92
11985;BME280;6052;53.246;10.368;2023-09-19T09:02:42;100278.44;;;19.36;76.92
11985;BME280;6052;53.246;10.368;2023-09-19T09:05:16;100270.38;;;19.31;76.75
11985;BME280;6052;53.246;10.368;2023-09-19T09:07:49;100270.88;;;19.19;76.40
11985;BME280;6052;53.246;10.368;2023-09-19T09:10:21;100269.16;;;19.37;75.67
11985;BME280;6052;53.246;10.368;2023-09-19T09:12:52;100283.00;;;19.27;75.91
11985;BME280;6052;53.246;10.368;2023-09-19T09:15:23;100282.69;;;19.28;75.27
11985;BME280;6052;53.246;10.368;2023-09-19T09:17:52;100283.06;;;19.35;74.82
11985;BME280;6052;53.246;10.368;2023-09-19T09:20:25;100280.75;;;19.29;74.43
11985;BME280;6052;53.246;10.368;2023-09-19T09:22:56;100276.84;;;19.35;74.80
11985;BME280;6052;53.246;10.368;2023-09-19T09:25:51;100277.63;;;19.49;74.29
11985;BME280;6052;53.246;10.368;2023-09-19T09:28:27;100285.69;;;19.54;73.82
11985;BME280;6052;53.246;10.368;2023-09-19T09:30:57;100276.00;;;19.48;74.03
11985;BME280;6052;53.246;10.368;2023-09-19T09:33:29;100301.22;;;19.53;73.53
11985;BME280;6052;53.246;10.368;2023-09-19T09:36:02;100281.47;;;19.34;71.92
11985;BME280;6052;53.246;10.368;2023-09-19T09:38:43;100281.84;;;19.55;72.29
11985;BME280;6052;53.246;10.368;2023-09-19T09:41:16;100275.53;;;19.68;72.23
11985;BME280;6052;53.246;10.368;2023-09-19T09:43:54;100286.88;;;19.61;70.88
11985;BME280;6052;53.246;10.368;2023-09-19T09:46:25;100294.31;;;19.69;71.19
11985;BME280;6052;53.246;10.368;2023-09-19T09:49:10;100302.91;;;19.63;70.51
11985;BME280;6052;53.246;10.368;2023-09-19T09:52:03;100286.06;;;19.61;71.02
11985;BME280;6052;53.246;10.368;2023-09-19T09:54:58;100289.59;;;19.61;71.32
11985;BME280;6052;53.246;10.368;2023-09-19T09:57:32;100288.91;;;19.56;71.11
11985;BME280;6052;53.246;10.368;2023-09-19T10:00:03;100294.31;;;19.69;71.53
11985;BME280;6052;53.246;10.368;2023-09-19T10:02:47;100291.50;;;19.61;71.22
11985;BME280;6052;53.246;10.368;2023-09-19T10:05:17;100294.22;;;19.61;70.24
11985;BME280;6052;53.246;10.368;2023-09-19T10:08:10;100293.09;;;19.75;70.91
11985;BME280;6052;53.246;10.368;2023-09-19T10:10:45;100297.38;;;19.90;71.65
11985;BME280;6052;53.246;10.368;2023-09-19T10:13:21;100294.00;;;19.71;71.40
11985;BME280;6052;53.246;10.368;2023-09-19T10:15:54;100287.03;;;19.78;70.26
11985;BME280;6052;53.246;10.368;2023-09-19T10:18:26;100300.94;;;19.77;70.66
11985;BME280;6052;53.246;10.368;2023-09-19T10:20:57;100305.06;;;19.88;71.67
11985;BME280;6052;53.246;10.368;2023-09-19T10:23:31;100298.84;;;19.74;70.41
11985;BME280;6052;53.246;10.368;2023-09-19T10:26:01;100310.75;;;19.78;70.24
11985;BME280;6052;53.246;10.368;2023-09-19T10:28:32;100311.06;;;19.98;70.88
11985;BME280;6052;53.246;10.368;2023-09-19T10:31:03;100307.53;;;20.11;70.40
11985;BME280;6052;53.246;10.368;2023-09-19T10:33:36;100307.81;;;19.88;70.16
11985;BME280;6052;53.246;10.368;2023-09-19T10:36:09;100317.72;;;20.06;71.42
11985;BME280;6052;53.246;10.368;2023-09-19T10:38:43;100315.22;;;19.96;70.08
11985;BME280;6052;53.246;10.368;2023-09-19T10:41:16;100315.22;;;19.96;70.33
11985;BME280;6052;53.246;10.368;2023-09-19T10:43:48;100334.81;;;19.98;69.77
11985;BME280;6052;53.246;10.368;2023-09-19T10:46:18;100323.50;;;19.91;68.94
11985;BME280;6052;53.246;10.368;2023-09-19T10:48:47;100313.84;;;19.85;68.95
11985;BME280;6052;53.246;10.368;2023-09-19T10:51:19;100319.75;;;20.00;70.12
11985;BME280;6052;53.246;10.368;2023-09-19T10:53:58;100320.22;;;19.80;68.84
11985;BME280;6052;53.246;10.368;2023-09-19T10:56:33;100311.63;;;19.87;68.54
11985;BME280;6052;53.246;10.368;2023-09-19T10:59:06;100318.66;;;20.01;68.75
11985;BME280;6052;53.246;10.368;2023-09-19T11:01:42;100319.72;;;19.78;67.94
11985;BME280;6052;53.246;10.368;2023-09-19T11:04:21;100304.56;;;19.86;66.96
11985;BME280;6052;53.246;10.368;2023-09-19T11:07:11;100314.34;;;19.87;67.41
11985;BME280;6052;53.246;10.368;2023-09-19T11:09:48;100325.25;;;19.87;66.70
11985;BME280;6052;53.246;10.368;2023-09-19T11:12:50;100330.81;;;19.82;66.91
11985;BME280;6052;53.246;10.368;2023-09-19T11:18:52;100320.91;;;19.86;66.65
11985;BME280;6052;53.246;10.368;2023-09-19T11:21:53;100326.94;;;19.96;67.36
11985;BME280;6052;53.246;10.368;2023-09-19T11:24:31;100325.41;;;20.04;67.50
11985;BME280;6052;53.246;10.368;2023-09-19T11:27:13;100305.88;;;20.24;68.33
11985;BME280;6052;53.246;10.368;2023-09-19T11:29:45;100323.47;;;20.18;68.17
11985;BME280;6052;53.246;10.368;2023-09-19T11:32:15;100336.28;;;20.17;67.68
11985;BME280;6052;53.246;10.368;2023-09-19T11:34:47;100325.78;;;20.11;67.68
11985;BME280;6052;53.246;10.368;2023-09-19T11:40:38;100318.56;;;20.28;68.24
11985;BME280;6052;53.246;10.368;2023-09-19T11:43:34;100317.97;;;20.09;68.80
11985;BME280;6052;53.246;10.368;2023-09-19T11:46:07;100319.13;;;20.03;69.03
11985;BME280;6052;53.246;10.368;2023-09-19T11:48:41;100315.41;;;19.99;68.09
11985;BME280;6052;53.246;10.368;2023-09-19T11:51:12;100312.56;;;20.04;68.79
11985;BME280;6052;53.246;10.368;2023-09-19T11:53:46;100314.78;;;20.16;69.02
11985;BME280;6052;53.246;10.368;2023-09-19T11:56:18;100311.38;;;20.10;68.00
11985;BME280;6052;53.246;10.368;2023-09-19T11:58:52;100312.16;;;20.11;68.44
11985;BME280;6052;53.246;10.368;2023-09-19T12:01:25;100311.69;;;20.09;67.51
11985;BME280;6052;53.246;10.368;2023-09-19T12:03:58;100300.34;;;20.02;68.05
11985;BME280;6052;53.246;10.368;2023-09-19T12:06:30;100287.59;;;20.24;69.17
11985;BME280;6052;53.246;10.368;2023-09-19T12:08:59;100297.13;;;20.35;68.73
11985;BME280;6052;53.246;10.368;2023-09-19T12:11:41;100295.25;;;20.22;67.97
11985;BME280;6052;53.246;10.368;2023-09-19T12:14:21;100295.22;;;20.14;68.39
11985;BME280;6052;53.246;10.368;2023-09-19T12:16:54;100295.50;;;20.12;68.29
11985;BME280;6052;53.246;10.368;2023-09-19T12:19:24;100307.66;;;20.28;69.11
11985;BME280;6052;53.246;10.368;2023-09-19T12:21:56;100296.53;;;20.03;68.20
11985;BME280;6052;53.246;10.368;2023-09-19T12:24:30;100294.41;;;20.00;67.45
11985;BME280;6052;53.246;10.368;2023-09-19T12:27:01;100292.91;;;20.07;67.68
11985;BME280;6052;53.246;10.368;2023-09-19T12:29:31;100285.25;;;20.09;68.33
11985;BME280;6052;53.246;10.368;2023-09-19T12:32:03;100287.81;;;20.36;68.46
11985;BME280;6052;53.246;10.368;2023-09-19T12:34:33;100278.00;;;20.27;67.74
11985;BME280;6052;53.246;10.368;2023-09-19T12:37:10;100291.69;;;20.35;67.88
11985;BME280;6052;53.246;10.368;2023-09-19T12:39:49;100290.50;;;20.28;67.06
11985;BME280;6052;53.246;10.368;2023-09-19T12:42:21;100285.28;;;20.40;67.42
11985;BME280;6052;53.246;10.368;2023-09-19T12:44:58;100280.06;;;20.52;67.89
11985;BME280;6052;53.246;10.368;2023-09-19T12:47:28;100297.56;;;20.29;67.15
11985;BME280;6052;53.246;10.368;2023-09-19T12:50:10;100290.44;;;20.41;67.35
11985;BME280;6052;53.246;10.368;2023-09-19T12:52:46;100297.75;;;20.32;67.46
11985;BME280;6052;53.246;10.368;2023-09-19T12:55:20;100292.28;;;20.54;67.06
11985;BME280;6052;53.246;10.368;2023-09-19T12:58:09;100304.09;;;20.50;65.87
11985;BME280;6052;53.246;10.368;2023-09-19T13:00:46;100288.38;;;20.47;65.58
11985;BME280;6052;53.246;10.368;2023-09-19T13:03:25;100296.34;;;20.43;65.99
11985;BME280;6052;53.246;10.368;2023-09-19T13:05:56;100297.59;;;20.59;66.30
11985;BME280;6052;53.246;10.368;2023-09-19T13:08:28;100289.59;;;20.63;66.03
11985;BME280;6052;53.246;10.368;2023-09-19T13:11:03;100284.56;;;20.56;66.09
11985;BME280;6052;53.246;10.368;2023-09-19T13:13:33;100280.53;;;20.76;66.02
11985;BME280;6052;53.246;10.368;2023-09-19T13:16:06;100288.91;;;20.57;65.26
11985;BME280;6052;53.246;10.368;2023-09-19T13:18:45;100290.91;;;20.43;65.11
11985;BME280;6052;53.246;10.368;2023-09-19T13:21:27;100293.91;;;20.64;65.66
11985;BME280;6052;53.246;10.368;2023-09-19T13:24:20;100289.31;;;20.73;66.72
11985;BME280;6052;53.246;10.368;2023-09-19T13:26:54;100286.44;;;20.78;65.98
11985;BME280;6052;53.246;10.368;2023-09-19T13:29:23;100269.50;;;20.59;66.00